createdAt,value
2023-04-22T00:00:25.986Z,3.09
2023-04-22T00:03:12.950Z,3.08
2023-04-22T00:05:42.191Z,3.06
2023-04-22T00:08:09.129Z,3.04
2023-04-22T00:10:36.245Z,3.05
2023-04-22T00:13:03.079Z,3.03
2023-04-22T00:15:30.204Z,3.02
2023-04-22T00:17:58.849Z,3.02
2023-04-22T00:20:25.970Z,2.98
2023-04-22T00:22:52.888Z,3.01
2023-04-22T00:25:20.110Z,2.99
2023-04-22T00:27:46.978Z,3.01
2023-04-22T00:30:14.319Z,3.00
2023-04-22T00:32:41.184Z,3.01
2023-04-22T00:35:08.909Z,3.05
2023-04-22T00:37:35.938Z,3.10
2023-04-22T00:40:03.543Z,3.16
2023-04-22T00:50:57.135Z,3.36
2023-04-22T00:53:24.336Z,3.36
2023-04-22T00:55:51.325Z,3.36
2023-04-22T00:58:19.336Z,3.35
2023-04-22T01:00:46.236Z,3.35
2023-04-22T01:03:13.721Z,3.37
2023-04-22T01:05:41.594Z,3.36
2023-04-22T01:08:08.713Z,3.32
2023-04-22T01:10:36.136Z,3.29
2023-04-22T01:13:03.540Z,3.25
2023-04-22T01:15:30.853Z,3.22
2023-04-22T01:17:59.126Z,3.17
2023-04-22T01:20:29.532Z,3.11
2023-04-22T01:23:00.213Z,3.05
2023-04-22T01:25:27.124Z,2.98
2023-04-22T01:27:55.430Z,2.96
2023-04-22T01:30:22.364Z,2.95
2023-04-22T01:32:49.969Z,2.92
2023-04-22T01:35:16.826Z,2.89
2023-04-22T01:37:44.858Z,2.83
2023-04-22T01:40:13.924Z,2.81
2023-04-22T01:42:41.594Z,2.79
2023-04-22T01:45:09.001Z,2.75
2023-04-22T01:47:36.157Z,2.74
2023-04-22T01:50:03.029Z,2.71
2023-04-22T01:52:31.010Z,2.68
2023-04-22T01:54:58.342Z,2.64
2023-04-22T01:57:25.484Z,2.71
2023-04-22T01:59:52.347Z,2.79
2023-04-22T02:02:19.517Z,2.83
2023-04-22T02:04:46.577Z,2.82
2023-04-22T02:07:13.779Z,2.76
2023-04-22T02:09:40.852Z,2.75
2023-04-22T02:12:08.392Z,2.69
2023-04-22T02:14:35.460Z,2.63
2023-04-22T02:17:03.331Z,2.61
2023-04-22T02:19:30.382Z,2.63
2023-04-22T02:21:58.220Z,2.62
2023-04-22T02:24:25.148Z,2.63
2023-04-22T02:26:52.395Z,2.65
2023-04-22T02:29:19.285Z,2.62
2023-04-22T02:31:46.489Z,2.60
2023-04-22T02:34:13.372Z,2.55
2023-04-22T02:36:40.624Z,2.49
2023-04-22T02:39:07.596Z,2.42
2023-04-22T02:41:34.815Z,2.38
2023-04-22T02:44:01.678Z,2.28
2023-04-22T02:46:28.866Z,2.21
2023-04-22T02:51:51.085Z,2.16
2023-04-22T02:54:18.269Z,2.14
2023-04-22T02:56:46.193Z,2.12
2023-04-22T02:59:13.297Z,2.10
2023-04-22T03:01:40.237Z,2.09
2023-04-22T03:04:07.501Z,2.06
2023-04-22T03:06:34.375Z,2.03
2023-04-22T03:09:01.491Z,2.08
2023-04-22T03:11:28.398Z,2.10
2023-04-22T03:13:55.621Z,2.19
2023-04-22T03:16:25.659Z,2.22
2023-04-22T03:18:52.926Z,2.28
2023-04-22T03:21:19.777Z,2.32
2023-04-22T03:23:47.024Z,2.38
2023-04-22T03:26:13.900Z,2.44
2023-04-22T03:28:41.080Z,2.45
2023-04-22T03:31:07.932Z,2.47
2023-04-22T03:33:35.131Z,2.48
2023-04-22T03:36:02.130Z,2.45
2023-04-22T03:38:29.312Z,2.43
2023-04-22T03:40:56.210Z,2.41
2023-04-22T03:43:23.416Z,2.41
2023-04-22T03:45:51.675Z,2.42
2023-04-22T03:48:18.912Z,2.43
2023-04-22T03:50:46.083Z,2.49
2023-04-22T03:53:13.286Z,2.45
2023-04-22T03:55:40.252Z,2.53
2023-04-22T03:58:07.422Z,2.58
2023-04-22T04:00:34.250Z,2.65
2023-04-22T04:03:01.736Z,2.75
2023-04-22T04:05:28.976Z,2.83
2023-04-22T04:07:56.642Z,2.93
2023-04-22T04:10:23.516Z,3.02
2023-04-22T04:12:50.678Z,3.12
2023-04-22T04:15:19.270Z,3.23
2023-04-22T04:17:46.430Z,3.41
2023-04-22T04:20:13.762Z,3.57
2023-04-22T04:22:41.172Z,3.69
2023-04-22T04:25:08.370Z,3.83
2023-04-22T04:27:35.508Z,4.00
2023-04-22T04:30:03.999Z,4.17
2023-04-22T04:32:34.447Z,4.33
2023-04-22T04:35:02.247Z,4.51
2023-04-22T04:37:29.637Z,4.71
2023-04-22T04:39:59.346Z,4.89
2023-04-22T04:42:26.507Z,5.12
2023-04-22T04:44:53.709Z,5.48
2023-04-22T04:47:22.694Z,5.98
2023-04-22T04:49:50.297Z,6.35
2023-04-22T04:52:17.447Z,6.60
2023-04-22T04:54:44.416Z,6.78
2023-04-22T04:57:11.575Z,6.89
2023-04-22T04:59:38.690Z,6.96
2023-04-22T05:02:06.209Z,6.97
2023-04-22T05:04:33.601Z,7.07
2023-04-22T05:07:00.957Z,7.18
2023-04-22T05:09:27.791Z,7.28
2023-04-22T05:11:54.875Z,7.41
2023-04-22T05:14:21.665Z,7.57
2023-04-22T05:16:48.968Z,7.68
2023-04-22T05:19:15.822Z,7.82
2023-04-22T05:21:42.988Z,7.97
2023-04-22T05:24:09.788Z,8.11
2023-04-22T05:26:36.941Z,8.29
2023-04-22T05:29:03.840Z,8.53
2023-04-22T05:31:31.073Z,8.90
2023-04-22T05:33:57.999Z,9.35
2023-04-22T05:36:25.270Z,9.84
2023-04-22T05:38:52.068Z,10.29
2023-04-22T05:41:19.188Z,10.57
2023-04-22T05:43:46.481Z,10.67
2023-04-22T05:46:13.879Z,10.66
2023-04-22T05:48:40.867Z,10.91
2023-04-22T05:51:08.080Z,11.29
2023-04-22T05:53:34.862Z,11.46
2023-04-22T05:56:02.153Z,11.54
2023-04-22T05:58:29.055Z,11.92
2023-04-22T06:00:56.354Z,12.76
2023-04-22T06:03:23.495Z,13.50
2023-04-22T06:05:50.923Z,13.85
2023-04-22T06:08:17.906Z,13.83
2023-04-22T06:10:45.270Z,13.77
2023-04-22T06:13:12.189Z,13.58
2023-04-22T06:15:39.506Z,13.42
2023-04-22T06:18:06.485Z,13.20
2023-04-22T06:20:35.886Z,13.04
2023-04-22T06:23:05.301Z,13.00
2023-04-22T06:25:33.009Z,13.04
2023-04-22T06:27:59.988Z,13.02
2023-04-22T06:30:27.844Z,13.05
2023-04-22T06:32:56.365Z,13.21
2023-04-22T06:35:23.666Z,13.49
2023-04-22T06:37:50.645Z,14.10
2023-04-22T06:40:17.892Z,14.82
2023-04-22T06:42:44.928Z,15.80
2023-04-22T06:45:13.067Z,17.25
2023-04-22T06:47:40.547Z,18.71
2023-04-22T06:50:09.218Z,20.11
2023-04-22T06:52:36.597Z,21.14
2023-04-22T06:55:04.176Z,21.61
2023-04-22T06:57:31.359Z,21.97
2023-04-22T06:59:58.560Z,21.88
2023-04-22T07:02:25.530Z,21.89
2023-04-22T07:04:52.765Z,21.93
2023-04-22T07:07:19.709Z,21.87
2023-04-22T07:09:46.883Z,21.99
2023-04-22T07:12:13.731Z,22.21
2023-04-22T07:14:44.825Z,22.60
2023-04-22T07:17:12.808Z,23.31
2023-04-22T07:19:40.310Z,23.99
2023-04-22T07:22:07.579Z,24.99
2023-04-22T07:24:34.755Z,26.08
2023-04-22T07:27:02.464Z,27.15
2023-04-22T07:29:29.579Z,27.90
2023-04-22T07:31:56.679Z,28.19
2023-04-22T07:34:23.901Z,28.48
2023-04-22T07:36:52.346Z,28.90
2023-04-22T07:39:19.518Z,28.88
2023-04-22T07:41:46.401Z,28.89
2023-04-22T07:44:18.522Z,28.64
2023-04-22T07:46:45.487Z,28.37
2023-04-22T07:49:14.339Z,28.46
2023-04-22T07:51:41.266Z,28.41
2023-04-22T07:54:08.459Z,28.60
2023-04-22T07:56:35.457Z,28.51
2023-04-22T07:59:03.445Z,28.54
2023-04-22T08:01:30.443Z,28.73
2023-04-22T08:03:57.800Z,29.24
2023-04-22T08:06:25.057Z,29.85
2023-04-22T08:08:52.293Z,30.35
2023-04-22T08:11:19.289Z,30.81
2023-04-22T08:13:46.550Z,31.33
2023-04-22T08:16:13.566Z,31.98
2023-04-22T08:18:41.195Z,32.54
2023-04-22T08:21:08.205Z,33.02
2023-04-22T08:23:35.407Z,33.50
2023-04-22T08:26:03.472Z,34.05
2023-04-22T08:28:30.569Z,34.29
2023-04-22T08:30:57.659Z,35.17
2023-04-22T08:33:27.145Z,35.30
2023-04-22T08:35:54.271Z,34.68
2023-04-22T08:38:21.435Z,33.94
2023-04-22T08:40:49.016Z,33.07
2023-04-22T08:43:16.280Z,32.21
2023-04-22T08:45:43.373Z,31.32
2023-04-22T08:48:12.738Z,30.62
2023-04-22T08:50:40.100Z,29.91
2023-04-22T08:53:07.318Z,29.32
2023-04-22T08:55:35.519Z,29.04
2023-04-22T08:58:04.469Z,28.78
2023-04-22T09:00:32.275Z,28.27
2023-04-22T09:03:05.353Z,28.23
2023-04-22T09:05:37.705Z,28.07
2023-04-22T09:08:05.356Z,27.87
2023-04-22T09:10:34.126Z,27.84
2023-04-22T09:13:03.485Z,27.85
2023-04-22T09:15:31.019Z,27.88
2023-04-22T09:17:58.708Z,27.99
2023-04-22T09:20:28.130Z,28.16
2023-04-22T09:23:55.512Z,28.37
2023-04-22T09:26:26.253Z,28.80
2023-04-22T09:28:56.536Z,29.18
2023-04-22T09:31:24.282Z,29.48
2023-04-22T09:33:53.916Z,29.57
2023-04-22T09:36:30.424Z,29.07
2023-04-22T09:39:07.430Z,29.03
2023-04-22T09:41:38.641Z,29.39
2023-04-22T09:44:10.343Z,29.72
2023-04-22T09:46:37.557Z,29.98
2023-04-22T09:49:04.462Z,30.15
2023-04-22T09:51:32.160Z,29.86
2023-04-22T09:54:08.763Z,29.87
2023-04-22T09:56:43.718Z,29.91
2023-04-22T09:59:10.898Z,30.36
2023-04-22T10:01:41.174Z,30.78
2023-04-22T10:04:15.095Z,31.18
2023-04-22T10:06:43.349Z,31.90
2023-04-22T10:09:10.276Z,32.54
2023-04-22T10:11:37.773Z,33.11
2023-04-22T10:14:05.475Z,33.46
2023-04-22T10:16:34.894Z,33.65
2023-04-22T10:19:04.774Z,34.10
2023-04-22T10:21:33.585Z,34.67
2023-04-22T10:24:00.951Z,35.27
2023-04-22T10:26:51.104Z,35.60
2023-04-22T10:29:19.967Z,36.01
2023-04-22T10:32:23.897Z,36.47
2023-04-22T10:35:06.427Z,36.99
2023-04-22T10:37:34.206Z,37.22
2023-04-22T10:40:07.877Z,37.10
2023-04-22T10:42:35.390Z,35.91
2023-04-22T10:45:04.329Z,35.32
2023-04-22T10:47:36.251Z,35.31
2023-04-22T10:50:27.870Z,35.68
2023-04-22T10:53:00.414Z,35.92
2023-04-22T10:55:50.028Z,36.14
2023-04-22T10:58:21.811Z,36.40
2023-04-22T11:00:54.362Z,35.94
2023-04-22T11:03:31.370Z,35.17
2023-04-22T11:06:18.776Z,35.23
2023-04-22T11:08:48.197Z,35.64
2023-04-22T11:11:17.237Z,35.89
2023-04-22T11:13:45.589Z,35.93
2023-04-22T11:16:12.504Z,35.87
2023-04-22T11:18:39.981Z,34.89
2023-04-22T11:21:08.781Z,34.77
2023-04-22T11:23:38.756Z,35.10
2023-04-22T11:26:07.082Z,35.14
2023-04-22T11:28:34.350Z,35.18
2023-04-22T11:31:10.489Z,34.95
2023-04-22T11:33:39.275Z,34.58
2023-04-22T11:36:10.204Z,33.43
2023-04-22T11:38:37.396Z,32.65
2023-04-22T11:41:05.161Z,31.79
2023-04-22T11:43:32.347Z,30.91
2023-04-22T11:45:59.467Z,29.85
2023-04-22T11:48:26.814Z,28.70
2023-04-22T11:51:09.921Z,27.70
2023-04-22T11:53:38.752Z,26.92
2023-04-22T11:56:05.750Z,26.26
2023-04-22T11:58:32.991Z,25.88
2023-04-22T12:01:00.674Z,25.56
2023-04-22T12:03:29.762Z,25.33
2023-04-22T12:06:04.563Z,25.00
2023-04-22T12:08:37.034Z,24.96
2023-04-22T12:11:09.470Z,24.76
2023-04-22T12:13:36.572Z,24.57
2023-04-22T12:16:05.879Z,24.47
2023-04-22T12:18:38.595Z,24.42
2023-04-22T12:21:09.468Z,24.37
2023-04-22T12:23:49.903Z,24.39
2023-04-22T12:26:18.197Z,24.38
2023-04-22T12:28:46.083Z,24.42
2023-04-22T12:31:14.797Z,24.74
2023-04-22T12:33:42.838Z,25.24
2023-04-22T12:36:10.337Z,25.94
2023-04-22T12:38:37.975Z,25.99
2023-04-22T12:41:06.515Z,25.39
2023-04-22T12:43:36.742Z,24.62
2023-04-22T12:46:05.276Z,24.36
2023-04-22T12:48:32.888Z,24.60
2023-04-22T12:51:00.249Z,25.23
2023-04-22T12:53:28.196Z,25.78
2023-04-22T12:55:56.035Z,26.15
2023-04-22T12:58:23.891Z,26.60
2023-04-22T13:00:50.784Z,27.03
2023-04-22T13:03:18.096Z,27.04
2023-04-22T13:05:45.671Z,26.41
2023-04-22T13:08:12.792Z,25.67
2023-04-22T13:10:39.691Z,25.19
2023-04-22T13:15:39.115Z,24.72
2023-04-22T13:18:06.782Z,24.79
2023-04-22T13:20:33.813Z,24.89
2023-04-22T13:23:02.262Z,24.81
2023-04-22T13:25:29.472Z,24.58
2023-04-22T13:27:56.690Z,24.34
2023-04-22T13:30:23.607Z,24.06
2023-04-22T13:32:50.903Z,23.86
2023-04-22T13:35:18.544Z,23.69
2023-04-22T13:37:46.793Z,23.55
2023-04-22T13:40:13.823Z,23.49
2023-04-22T13:42:41.145Z,23.47
2023-04-22T13:45:08.649Z,23.37
2023-04-22T13:47:36.129Z,23.32
2023-04-22T13:50:03.431Z,23.33
2023-04-22T13:52:30.686Z,23.32
2023-04-22T13:54:57.549Z,23.33
2023-04-22T13:57:24.771Z,23.28
2023-04-22T13:59:51.783Z,23.18
2023-04-22T14:02:19.018Z,22.93
2023-04-22T14:04:45.956Z,22.70
2023-04-22T14:07:13.166Z,22.47
2023-04-22T14:09:40.287Z,22.27
2023-04-22T14:12:08.691Z,22.07
2023-04-22T14:14:35.810Z,21.91
2023-04-22T14:17:03.454Z,21.76
2023-04-22T14:19:31.851Z,21.65
2023-04-22T14:21:58.987Z,21.54
2023-04-22T14:24:26.109Z,21.45
2023-04-22T14:26:54.306Z,21.40
2023-04-22T14:29:21.434Z,21.36
2023-04-22T14:31:49.985Z,21.42
2023-04-22T14:34:17.530Z,21.54
2023-04-22T14:36:44.660Z,21.61
2023-04-22T14:39:11.905Z,21.70
2023-04-22T14:41:39.224Z,21.83
2023-04-22T14:44:06.449Z,21.90
2023-04-22T14:46:33.609Z,21.95
2023-04-22T14:49:00.865Z,21.93
2023-04-22T14:51:29.112Z,21.98
2023-04-22T14:53:56.508Z,21.87
2023-04-22T14:56:24.437Z,21.68
2023-04-22T14:58:51.300Z,21.32
2023-04-22T15:01:18.782Z,21.04
2023-04-22T15:03:45.981Z,20.83
2023-04-22T15:06:13.256Z,20.75
2023-04-22T15:08:40.158Z,20.72
2023-04-22T15:11:07.855Z,20.63
2023-04-22T15:13:34.739Z,20.60
2023-04-22T15:16:02.346Z,20.59
2023-04-22T15:18:29.573Z,20.57
2023-04-22T15:20:56.705Z,20.53
2023-04-22T15:23:23.647Z,20.43
2023-04-22T15:25:50.842Z,20.28
2023-04-22T15:28:17.827Z,20.21
2023-04-22T15:30:44.957Z,20.14
2023-04-22T15:33:11.845Z,20.08
2023-04-22T15:35:39.078Z,20.00
2023-04-22T15:38:06.014Z,19.89
2023-04-22T15:40:33.147Z,19.78
2023-04-22T15:42:59.939Z,19.71
2023-04-22T15:45:27.168Z,19.62
2023-04-22T15:47:54.439Z,19.56
2023-04-22T15:50:23.523Z,19.52
2023-04-22T15:52:50.534Z,19.48
2023-04-22T15:55:18.212Z,19.40
2023-04-22T15:57:45.077Z,19.32
2023-04-22T16:00:14.411Z,19.25
2023-04-22T16:02:43.242Z,19.15
2023-04-22T16:05:11.900Z,19.08
2023-04-22T16:07:39.456Z,18.96
2023-04-22T16:10:07.352Z,18.80
2023-04-22T16:12:34.613Z,18.66
2023-04-22T16:15:02.255Z,18.52
2023-04-22T16:17:30.077Z,18.42
2023-04-22T16:19:57.357Z,18.30
2023-04-22T16:22:24.322Z,18.22
2023-04-22T16:24:51.555Z,18.13
2023-04-22T16:27:19.333Z,18.07
2023-04-22T16:29:46.608Z,18.01
2023-04-22T16:32:13.619Z,17.98
2023-04-22T16:34:40.835Z,17.93
2023-04-22T16:37:08.028Z,17.85
2023-04-22T16:39:35.507Z,17.69
2023-04-22T16:42:03.083Z,17.52
2023-04-22T16:44:30.673Z,17.36
2023-04-22T16:46:57.548Z,17.24
2023-04-22T16:49:24.769Z,17.10
2023-04-22T16:51:51.648Z,17.03
2023-04-22T16:54:18.818Z,16.96
2023-04-22T16:56:45.764Z,16.88
2023-04-22T16:59:14.474Z,16.81
2023-04-22T17:01:42.155Z,16.71
2023-04-22T17:04:09.476Z,16.61
2023-04-22T17:06:38.565Z,16.51
2023-04-22T17:09:07.706Z,16.40
2023-04-22T17:11:34.546Z,16.30
2023-04-22T17:14:01.725Z,16.18
2023-04-22T17:16:28.663Z,16.04
2023-04-22T17:18:55.906Z,15.90
2023-04-22T17:21:23.469Z,15.76
2023-04-22T17:23:50.807Z,15.61
2023-04-22T17:26:17.701Z,15.44
2023-04-22T17:28:44.816Z,15.21
2023-04-22T17:31:12.252Z,14.96
2023-04-22T17:33:40.932Z,14.71
2023-04-22T17:36:07.887Z,14.47
2023-04-22T17:38:35.542Z,14.25
2023-04-22T17:41:02.710Z,13.99
2023-04-22T17:43:29.966Z,13.72
2023-04-22T17:45:56.961Z,13.43
2023-04-22T17:48:24.149Z,13.16
2023-04-22T17:50:51.178Z,12.89
2023-04-22T17:53:18.322Z,12.68
2023-04-22T17:55:45.234Z,12.48
2023-04-22T17:58:12.414Z,12.23
2023-04-22T18:00:39.705Z,12.00
2023-04-22T18:03:07.855Z,11.79
2023-04-22T18:05:34.973Z,11.58
2023-04-22T18:08:03.013Z,11.39
2023-04-22T18:10:30.923Z,11.26
2023-04-22T18:12:58.166Z,11.09
2023-04-22T18:15:25.135Z,10.94
2023-04-22T18:17:52.441Z,10.80
2023-04-22T18:20:20.662Z,10.64
2023-04-22T18:22:49.875Z,10.52
2023-04-22T18:25:16.798Z,10.41
2023-04-22T18:27:44.448Z,10.30
2023-04-22T18:30:11.719Z,10.21
2023-04-22T18:32:39.078Z,10.08
2023-04-22T18:35:06.591Z,9.95
2023-04-22T18:37:34.890Z,9.79
2023-04-22T18:40:02.730Z,9.70
2023-04-22T18:42:30.307Z,9.65
2023-04-22T18:44:57.469Z,9.54
2023-04-22T18:47:24.614Z,9.52
2023-04-22T18:49:51.494Z,9.45
2023-04-22T18:52:18.892Z,9.38
2023-04-22T18:54:45.759Z,9.27
2023-04-22T18:57:12.845Z,9.18
2023-04-22T18:59:39.894Z,9.11
2023-04-22T19:02:07.151Z,9.04
2023-04-22T19:04:34.146Z,8.96
2023-04-22T19:07:01.325Z,8.86
2023-04-22T19:09:29.216Z,8.77
2023-04-22T19:11:56.478Z,8.67
2023-04-22T19:14:23.391Z,8.56
2023-04-22T19:16:51.443Z,8.46
2023-04-22T19:19:18.342Z,8.39
2023-04-22T19:21:45.699Z,8.29
2023-04-22T19:24:14.355Z,8.20
2023-04-22T19:26:41.588Z,8.11
2023-04-22T19:29:08.752Z,8.05
2023-04-22T19:31:38.913Z,7.90
2023-04-22T19:34:05.858Z,7.84
2023-04-22T19:36:33.087Z,7.76
2023-04-22T19:39:00.064Z,7.67
2023-04-22T19:41:27.424Z,7.58
2023-04-22T19:43:56.296Z,7.54
2023-04-22T19:46:23.404Z,7.50
2023-04-22T19:48:51.417Z,7.47
2023-04-22T19:51:19.753Z,7.44
2023-04-22T19:53:47.021Z,7.41
2023-04-22T19:56:15.003Z,7.39
2023-04-22T19:58:42.855Z,7.34
2023-04-22T20:01:10.302Z,7.27
2023-04-22T20:03:37.694Z,7.20
2023-04-22T20:06:05.321Z,7.14
2023-04-22T20:08:33.041Z,7.09
2023-04-22T20:11:01.089Z,6.97
2023-04-22T20:13:28.157Z,6.87
2023-04-22T20:15:55.547Z,6.80
2023-04-22T20:18:22.556Z,6.75
2023-04-22T20:20:51.843Z,6.70
2023-04-22T20:23:23.449Z,6.65
2023-04-22T20:25:51.731Z,6.63
2023-04-22T20:28:19.401Z,6.59
2023-04-22T20:30:46.822Z,6.53
2023-04-22T20:33:17.231Z,6.49
2023-04-22T20:35:46.457Z,6.43
2023-04-22T20:38:15.169Z,6.37
2023-04-22T20:40:44.749Z,6.34
2023-04-22T20:43:11.477Z,6.26
2023-04-22T20:45:38.661Z,6.23
2023-04-22T20:48:05.580Z,6.20
2023-04-22T20:50:33.684Z,6.17
2023-04-22T20:53:01.262Z,6.17
2023-04-22T20:55:28.429Z,6.13
2023-04-22T20:57:55.307Z,6.17
2023-04-22T21:00:22.712Z,6.16
2023-04-22T21:02:51.124Z,6.12
2023-04-22T21:05:19.106Z,6.11
2023-04-22T21:07:48.476Z,6.08
2023-04-22T21:10:16.092Z,6.07
2023-04-22T21:12:43.529Z,6.03
2023-04-22T21:15:11.459Z,6.02
2023-04-22T21:17:41.524Z,5.95
2023-04-22T21:20:09.614Z,5.88
2023-04-22T21:22:37.555Z,5.83
2023-04-22T21:25:06.067Z,5.76
2023-04-22T21:27:33.238Z,5.74
2023-04-22T21:30:01.204Z,5.68
2023-04-22T21:32:29.565Z,5.62
2023-04-22T21:34:56.981Z,5.60
2023-04-22T21:37:24.180Z,5.56
2023-04-22T21:39:51.390Z,5.49
2023-04-22T21:42:18.285Z,5.42
2023-04-22T21:44:49.771Z,5.39
2023-04-22T21:47:16.874Z,5.38
2023-04-22T21:49:46.679Z,5.31
2023-04-22T21:52:13.544Z,5.29
2023-04-22T21:54:40.934Z,5.26
2023-04-22T21:57:08.026Z,5.26
2023-04-22T21:59:35.154Z,5.24
2023-04-22T22:02:02.168Z,5.16
2023-04-22T22:04:29.664Z,5.11
2023-04-22T22:06:56.710Z,5.12
2023-04-22T22:09:23.868Z,5.06
2023-04-22T22:11:50.966Z,5.02
2023-04-22T22:14:18.148Z,5.01
2023-04-22T22:16:45.053Z,4.96
2023-04-22T22:19:13.933Z,4.91
2023-04-22T22:21:40.766Z,4.84
2023-04-22T22:24:09.555Z,4.86
2023-04-22T22:26:36.593Z,4.88
2023-04-22T22:29:03.802Z,4.89
2023-04-22T22:31:30.667Z,4.91
2023-04-22T22:33:58.827Z,4.88
2023-04-22T22:36:25.736Z,4.85
2023-04-22T22:38:52.895Z,4.79
2023-04-22T22:41:19.712Z,4.77
2023-04-22T22:43:46.868Z,4.77
2023-04-22T22:46:13.753Z,4.75
2023-04-22T22:48:41.072Z,4.74
2023-04-22T22:51:09.506Z,4.71
2023-04-22T22:53:36.853Z,4.72
2023-04-22T22:56:03.914Z,4.72
2023-04-22T22:58:31.386Z,4.71
2023-04-22T23:00:58.233Z,4.71
2023-04-22T23:03:25.479Z,4.72
2023-04-22T23:05:52.476Z,4.70
2023-04-22T23:08:19.610Z,4.72
2023-04-22T23:10:46.439Z,4.75
2023-04-22T23:13:13.588Z,4.74
2023-04-22T23:15:40.521Z,4.75
2023-04-22T23:18:09.093Z,4.72
2023-04-22T23:20:37.294Z,4.70
2023-04-22T23:23:05.087Z,4.70
2023-04-22T23:25:32.258Z,4.71
2023-04-22T23:28:00.048Z,4.68
2023-04-22T23:30:27.116Z,4.68
2023-04-22T23:32:57.600Z,4.70
2023-04-22T23:35:27.499Z,4.66
2023-04-22T23:37:55.169Z,4.67
2023-04-22T23:40:22.046Z,4.65
2023-04-22T23:42:49.168Z,4.63
2023-04-22T23:45:16.098Z,4.61
2023-04-22T23:47:43.373Z,4.61
2023-04-22T23:50:11.064Z,4.54
2023-04-22T23:52:41.421Z,4.51
2023-04-22T23:55:13.981Z,4.42
2023-04-22T23:57:42.089Z,4.36
